TimeMST,TemperatureF,Dew PointF,Humidity,Sea Level PressureIn,VisibilityMPH,Wind Direction,Wind SpeedMPH,Gust SpeedMPH,PrecipitationIn,Events,Conditions,WindDirDegrees,DateUTC
12:53 AM,17.1,12.0,81,30.12,-9999.0,Variable,3.5,-,N/A,,Overcast,0,2013-01-30 07:53:00
1:53 AM,18.0,12.9,81,30.10,-9999.0,Calm,Calm,-,N/A,,Overcast,0,2013-01-30 08:53:00
2:53 AM,18.0,14.0,84,30.12,-9999.0,Calm,Calm,-,N/A,,Overcast,0,2013-01-30 09:53:00
3:53 AM,17.1,14.0,88,30.09,-9999.0,South,5.8,-,N/A,,Mostly Cloudy,170,2013-01-30 10:53:00
4:53 AM,23.0,16.0,74,30.05,-9999.0,SW,9.2,-,N/A,,Clear,220,2013-01-30 11:53:00
5:53 AM,21.0,15.1,78,30.07,-9999.0,West,4.6,-,N/A,,Overcast,260,2013-01-30 12:53:00
6:53 AM,19.9,14.0,78,30.09,-9999.0,SE,6.9,-,N/A,,Mostly Cloudy,130,2013-01-30 13:53:00
7:53 AM,30.0,19.9,66,30.05,-9999.0,SSW,11.5,-,N/A,,Overcast,200,2013-01-30 14:53:00
8:53 AM,30.0,19.9,66,30.07,-9999.0,SW,11.5,-,N/A,,Mostly Cloudy,230,2013-01-30 15:53:00
9:53 AM,33.1,21.9,64,30.03,-9999.0,WSW,23.0,29.9,N/A,,Mostly Cloudy,240,2013-01-30 16:53:00
10:53 AM,34.0,23.0,64,30.05,-9999.0,SW,19.6,28.8,N/A,,Mostly Cloudy,230,2013-01-30 17:53:00
11:53 AM,37.0,23.0,57,30.03,-9999.0,WSW,18.4,-,N/A,,Overcast,250,2013-01-30 18:53:00
12:53 PM,37.0,21.9,54,30.03,-9999.0,WSW,12.7,24.2,N/A,,Overcast,250,2013-01-30 19:53:00
1:53 PM,37.0,21.9,54,30.02,-9999.0,WSW,11.5,-,N/A,,Overcast,240,2013-01-30 20:53:00
2:53 PM,37.9,23.0,55,30.02,-9999.0,SW,9.2,-,N/A,,Overcast,230,2013-01-30 21:53:00
3:53 PM,37.0,24.1,59,30.04,-9999.0,SW,16.1,19.6,N/A,,Overcast,230,2013-01-30 22:53:00
4:53 PM,36.0,24.1,62,30.02,-9999.0,WSW,15.0,21.9,N/A,,Overcast,240,2013-01-30 23:53:00
5:53 PM,35.1,24.1,64,30.06,-9999.0,SW,19.6,25.3,N/A,,Overcast,230,2013-01-31 00:53:00
6:53 PM,35.1,21.9,59,30.07,-9999.0,WSW,6.9,-,N/A,,Overcast,250,2013-01-31 01:53:00
7:53 PM,34.0,23.0,64,30.05,-9999.0,SW,19.6,27.6,N/A,,Overcast,230,2013-01-31 02:53:00
8:53 PM,34.0,24.1,67,30.06,-9999.0,SW,12.7,23.0,N/A,,Mostly Cloudy,220,2013-01-31 03:53:00
9:53 PM,34.0,23.0,64,30.07,-9999.0,SSW,10.4,-,N/A,,Overcast,200,2013-01-31 04:53:00
10:53 PM,35.1,21.9,59,30.07,-9999.0,SW,12.7,-,N/A,,Overcast,230,2013-01-31 05:53:00
11:53 PM,34.0,21.0,59,30.08,-9999.0,SW,5.8,-,N/A,,Overcast,220,2013-01-31 06:53:00